sensor_id;sensor_type;location;lat;lon;timestamp;pressure;altitude;pressure_sealevel;temperature
66403;BMP180;53212;52.112;5.144;2023-04-30T00:00:50;102377.40;;;7.70
66403;BMP180;53212;52.112;5.144;2023-04-30T00:03:15;102375.80;;;7.70
66403;BMP180;53212;52.112;5.144;2023-04-30T00:05:41;102374.20;;;7.70
66403;BMP180;53212;52.112;5.144;2023-04-30T00:08:07;102369.80;;;7.60
66403;BMP180;53212;52.112;5.144;2023-04-30T00:10:32;102369.00;;;7.60
66403;BMP180;53212;52.112;5.144;2023-04-30T00:12:58;102363.60;;;7.50
66403;BMP180;53212;52.112;5.144;2023-04-30T00:15:23;102363.00;;;7.50
66403;BMP180;53212;52.112;5.144;2023-04-30T00:17:49;102366.60;;;7.50
66403;BMP180;53212;52.112;5.144;2023-04-30T00:20:14;102367.80;;;7.50
66403;BMP180;53212;52.112;5.144;2023-04-30T00:22:40;102362.60;;;7.60
66403;BMP180;53212;52.112;5.144;2023-04-30T00:25:05;102361.20;;;7.60
66403;BMP180;53212;52.112;5.144;2023-04-30T00:27:31;102357.60;;;7.60
66403;BMP180;53212;52.112;5.144;2023-04-30T00:29:57;102360.80;;;7.50
66403;BMP180;53212;52.112;5.144;2023-04-30T00:32:22;102358.40;;;7.50
66403;BMP180;53212;52.112;5.144;2023-04-30T00:34:48;102365.60;;;7.42
66403;BMP180;53212;52.112;5.144;2023-04-30T00:37:13;102367.40;;;7.44
66403;BMP180;53212;52.112;5.144;2023-04-30T00:39:39;102368.60;;;7.50
66403;BMP180;53212;52.112;5.144;2023-04-30T00:42:04;102372.80;;;7.50
66403;BMP180;53212;52.112;5.144;2023-04-30T00:44:30;102371.60;;;7.42
66403;BMP180;53212;52.112;5.144;2023-04-30T00:46:55;102381.80;;;7.30
66403;BMP180;53212;52.112;5.144;2023-04-30T00:49:21;102381.80;;;7.30
66403;BMP180;53212;52.112;5.144;2023-04-30T00:51:46;102382.40;;;7.30
66403;BMP180;53212;52.112;5.144;2023-04-30T00:54:12;102389.20;;;7.30
66403;BMP180;53212;52.112;5.144;2023-04-30T00:56:38;102393.00;;;7.30
66403;BMP180;53212;52.112;5.144;2023-04-30T00:59:04;102394.00;;;7.30
66403;BMP180;53212;52.112;5.144;2023-04-30T01:01:30;102388.20;;;7.30
66403;BMP180;53212;52.112;5.144;2023-04-30T01:03:56;102392.80;;;7.20
66403;BMP180;53212;52.112;5.144;2023-04-30T01:06:22;102392.80;;;7.20
66403;BMP180;53212;52.112;5.144;2023-04-30T01:08:49;102397.00;;;7.30
66403;BMP180;53212;52.112;5.144;2023-04-30T01:11:49;102397.20;;;7.30
66403;BMP180;53212;52.112;5.144;2023-04-30T01:14:31;102399.80;;;7.30
66403;BMP180;53212;52.112;5.144;2023-04-30T01:17:07;102399.20;;;7.26
66403;BMP180;53212;52.112;5.144;2023-04-30T01:19:40;102394.00;;;7.30
66403;BMP180;53212;52.112;5.144;2023-04-30T01:22:12;102394.60;;;7.30
66403;BMP180;53212;52.112;5.144;2023-04-30T01:28:07;102387.80;;;7.30
66403;BMP180;53212;52.112;5.144;2023-04-30T01:30:35;102392.00;;;7.30
66403;BMP180;53212;52.112;5.144;2023-04-30T01:33:02;102391.60;;;7.20
66403;BMP180;53212;52.112;5.144;2023-04-30T01:38:33;102394.60;;;7.18
66403;BMP180;53212;52.112;5.144;2023-04-30T01:47:09;102388.80;;;7.20
66403;BMP180;53212;52.112;5.144;2023-04-30T01:52:45;102395.20;;;7.14
66403;BMP180;53212;52.112;5.144;2023-04-30T01:55:18;102394.40;;;7.10
66403;BMP180;53212;52.112;5.144;2023-04-30T01:57:57;102398.00;;;7.12
66403;BMP180;53212;52.112;5.144;2023-04-30T02:00:25;102395.60;;;7.10
66403;BMP180;53212;52.112;5.144;2023-04-30T02:02:52;102397.40;;;7.16
66403;BMP180;53212;52.112;5.144;2023-04-30T02:05:17;102398.40;;;7.10
66403;BMP180;53212;52.112;5.144;2023-04-30T02:07:46;102396.80;;;7.10
66403;BMP180;53212;52.112;5.144;2023-04-30T02:10:13;102398.20;;;7.00
66403;BMP180;53212;52.112;5.144;2023-04-30T02:12:39;102400.20;;;6.90
66403;BMP180;53212;52.112;5.144;2023-04-30T02:15:06;102398.40;;;6.80
66403;BMP180;53212;52.112;5.144;2023-04-30T02:17:32;102399.20;;;6.80
66403;BMP180;53212;52.112;5.144;2023-04-30T02:19:59;102400.00;;;6.80
66403;BMP180;53212;52.112;5.144;2023-04-30T02:22:24;102401.80;;;6.70
66403;BMP180;53212;52.112;5.144;2023-04-30T02:24:50;102400.00;;;6.68
66403;BMP180;53212;52.112;5.144;2023-04-30T02:27:20;102395.60;;;6.60
66403;BMP180;53212;52.112;5.144;2023-04-30T02:29:46;102397.60;;;6.50
66403;BMP180;53212;52.112;5.144;2023-04-30T02:32:11;102395.80;;;6.50
66403;BMP180;53212;52.112;5.144;2023-04-30T02:34:37;102395.40;;;6.46
66403;BMP180;53212;52.112;5.144;2023-04-30T02:37:02;102399.20;;;6.40
66403;BMP180;53212;52.112;5.144;2023-04-30T02:39:28;102391.60;;;6.40
66403;BMP180;53212;52.112;5.144;2023-04-30T02:41:53;102393.60;;;6.40
66403;BMP180;53212;52.112;5.144;2023-04-30T02:44:19;102390.40;;;6.30
66403;BMP180;53212;52.112;5.144;2023-04-30T02:46:44;102387.80;;;6.30
66403;BMP180;53212;52.112;5.144;2023-04-30T02:49:10;102375.40;;;6.20
66403;BMP180;53212;52.112;5.144;2023-04-30T02:51:35;102369.20;;;6.20
66403;BMP180;53212;52.112;5.144;2023-04-30T02:54:00;102371.20;;;6.10
66403;BMP180;53212;52.112;5.144;2023-04-30T02:56:26;102371.00;;;6.12
66403;BMP180;53212;52.112;5.144;2023-04-30T02:58:52;102369.20;;;6.10
66403;BMP180;53212;52.112;5.144;2023-04-30T03:01:17;102378.20;;;6.10
66403;BMP180;53212;52.112;5.144;2023-04-30T03:03:43;102381.80;;;6.10
66403;BMP180;53212;52.112;5.144;2023-04-30T03:06:08;102372.40;;;6.10
66403;BMP180;53212;52.112;5.144;2023-04-30T03:08:34;102374.60;;;6.02
66403;BMP180;53212;52.112;5.144;2023-04-30T03:11:00;102378.00;;;6.00
66403;BMP180;53212;52.112;5.144;2023-04-30T03:13:25;102380.00;;;6.00
66403;BMP180;53212;52.112;5.144;2023-04-30T03:16:02;102377.00;;;5.90
66403;BMP180;53212;52.112;5.144;2023-04-30T03:18:31;102375.20;;;5.90
66403;BMP180;53212;52.112;5.144;2023-04-30T03:20:57;102380.80;;;5.90
66403;BMP180;53212;52.112;5.144;2023-04-30T03:23:25;102383.00;;;5.90
66403;BMP180;53212;52.112;5.144;2023-04-30T03:25:51;102380.00;;;5.82
66403;BMP180;53212;52.112;5.144;2023-04-30T03:28:16;102376.60;;;5.80
66403;BMP180;53212;52.112;5.144;2023-04-30T03:30:42;102373.60;;;5.80
66403;BMP180;53212;52.112;5.144;2023-04-30T03:33:07;102375.60;;;5.90
66403;BMP180;53212;52.112;5.144;2023-04-30T03:35:33;102371.60;;;5.90
66403;BMP180;53212;52.112;5.144;2023-04-30T03:38:00;102367.40;;;5.90
66403;BMP180;53212;52.112;5.144;2023-04-30T03:40:26;102369.80;;;5.90
66403;BMP180;53212;52.112;5.144;2023-04-30T03:42:51;102366.40;;;5.80
66403;BMP180;53212;52.112;5.144;2023-04-30T03:45:17;102364.20;;;5.78
66403;BMP180;53212;52.112;5.144;2023-04-30T03:47:43;102365.40;;;5.70
66403;BMP180;53212;52.112;5.144;2023-04-30T03:50:09;102361.80;;;5.78
66403;BMP180;53212;52.112;5.144;2023-04-30T03:52:35;102362.20;;;5.72
66403;BMP180;53212;52.112;5.144;2023-04-30T03:55:04;102359.80;;;5.70
66403;BMP180;53212;52.112;5.144;2023-04-30T03:57:30;102355.60;;;5.62
66403;BMP180;53212;52.112;5.144;2023-04-30T03:59:56;102360.20;;;5.60
66403;BMP180;53212;52.112;5.144;2023-04-30T04:02:21;102358.40;;;5.60
66403;BMP180;53212;52.112;5.144;2023-04-30T04:04:47;102358.00;;;5.60
66403;BMP180;53212;52.112;5.144;2023-04-30T04:07:14;102360.40;;;5.56
66403;BMP180;53212;52.112;5.144;2023-04-30T04:09:39;102360.40;;;5.60
66403;BMP180;53212;52.112;5.144;2023-04-30T04:12:05;102357.60;;;5.60
66403;BMP180;53212;52.112;5.144;2023-04-30T04:14:30;102362.60;;;5.60
66403;BMP180;53212;52.112;5.144;2023-04-30T04:16:56;102360.20;;;5.66
66403;BMP180;53212;52.112;5.144;2023-04-30T04:19:25;102363.40;;;5.60
66403;BMP180;53212;52.112;5.144;2023-04-30T04:21:51;102361.80;;;5.70
66403;BMP180;53212;52.112;5.144;2023-04-30T04:24:16;102360.60;;;5.70
66403;BMP180;53212;52.112;5.144;2023-04-30T04:26:42;102363.80;;;5.70
66403;BMP180;53212;52.112;5.144;2023-04-30T04:29:10;102360.40;;;5.70
66403;BMP180;53212;52.112;5.144;2023-04-30T04:31:36;102362.60;;;5.80
66403;BMP180;53212;52.112;5.144;2023-04-30T04:34:03;102359.60;;;5.80
66403;BMP180;53212;52.112;5.144;2023-04-30T04:36:30;102361.40;;;5.76
66403;BMP180;53212;52.112;5.144;2023-04-30T04:38:56;102363.60;;;5.80
66403;BMP180;53212;52.112;5.144;2023-04-30T04:41:27;102365.00;;;5.80
66403;BMP180;53212;52.112;5.144;2023-04-30T04:43:52;102362.60;;;5.80
66403;BMP180;53212;52.112;5.144;2023-04-30T04:46:17;102360.40;;;5.76
66403;BMP180;53212;52.112;5.144;2023-04-30T04:48:43;102361.60;;;5.70
66403;BMP180;53212;52.112;5.144;2023-04-30T04:51:09;102361.80;;;5.70
66403;BMP180;53212;52.112;5.144;2023-04-30T04:53:35;102367.80;;;5.70
66403;BMP180;53212;52.112;5.144;2023-04-30T04:56:01;102357.20;;;5.70
66403;BMP180;53212;52.112;5.144;2023-04-30T04:58:26;102359.00;;;5.80
66403;BMP180;53212;52.112;5.144;2023-04-30T05:00:52;102360.60;;;5.90
66403;BMP180;53212;52.112;5.144;2023-04-30T05:03:17;102360.80;;;6.02
66403;BMP180;53212;52.112;5.144;2023-04-30T05:05:45;102362.80;;;6.20
66403;BMP180;53212;52.112;5.144;2023-04-30T05:08:10;102361.80;;;6.40
66403;BMP180;53212;52.112;5.144;2023-04-30T05:10:35;102366.40;;;6.52
66403;BMP180;53212;52.112;5.144;2023-04-30T05:13:01;102360.40;;;6.70
66403;BMP180;53212;52.112;5.144;2023-04-30T05:15:26;102364.60;;;6.82
66403;BMP180;53212;52.112;5.144;2023-04-30T05:17:52;102363.00;;;6.98
66403;BMP180;53212;52.112;5.144;2023-04-30T05:20:17;102365.40;;;7.10
66403;BMP180;53212;52.112;5.144;2023-04-30T05:22:42;102361.80;;;7.20
66403;BMP180;53212;52.112;5.144;2023-04-30T05:25:08;102363.40;;;7.30
66403;BMP180;53212;52.112;5.144;2023-04-30T05:27:34;102363.80;;;7.42
66403;BMP180;53212;52.112;5.144;2023-04-30T05:30:00;102369.40;;;7.60
66403;BMP180;53212;52.112;5.144;2023-04-30T05:32:26;102368.40;;;7.70
66403;BMP180;53212;52.112;5.144;2023-04-30T05:34:52;102368.20;;;7.86
66403;BMP180;53212;52.112;5.144;2023-04-30T05:37:17;102372.60;;;8.06
66403;BMP180;53212;52.112;5.144;2023-04-30T05:39:45;102381.20;;;8.30
66403;BMP180;53212;52.112;5.144;2023-04-30T05:42:10;102381.60;;;8.50
66403;BMP180;53212;52.112;5.144;2023-04-30T05:44:36;102389.40;;;8.70
66403;BMP180;53212;52.112;5.144;2023-04-30T05:47:01;102388.00;;;8.90
66403;BMP180;53212;52.112;5.144;2023-04-30T05:49:27;102394.40;;;9.04
66403;BMP180;53212;52.112;5.144;2023-04-30T05:51:52;102398.00;;;9.20
66403;BMP180;53212;52.112;5.144;2023-04-30T05:54:18;102396.00;;;9.40
66403;BMP180;53212;52.112;5.144;2023-04-30T05:56:43;102397.20;;;9.56
66403;BMP180;53212;52.112;5.144;2023-04-30T05:59:08;102396.00;;;9.80
66403;BMP180;53212;52.112;5.144;2023-04-30T06:01:34;102400.60;;;10.04
66403;BMP180;53212;52.112;5.144;2023-04-30T06:03:59;102401.00;;;10.36
66403;BMP180;53212;52.112;5.144;2023-04-30T06:06:26;102396.60;;;10.72
66403;BMP180;53212;52.112;5.144;2023-04-30T06:08:52;102392.40;;;11.04
66403;BMP180;53212;52.112;5.144;2023-04-30T06:11:18;102391.00;;;11.34
66403;BMP180;53212;52.112;5.144;2023-04-30T06:13:48;102398.80;;;11.82
66403;BMP180;53212;52.112;5.144;2023-04-30T06:16:14;102398.80;;;12.44
66403;BMP180;53212;52.112;5.144;2023-04-30T06:18:39;102396.60;;;12.88
66403;BMP180;53212;52.112;5.144;2023-04-30T06:21:05;102399.00;;;13.22
66403;BMP180;53212;52.112;5.144;2023-04-30T06:23:30;102402.40;;;13.70
66403;BMP180;53212;52.112;5.144;2023-04-30T06:25:56;102403.40;;;13.96
66403;BMP180;53212;52.112;5.144;2023-04-30T06:28:21;102402.40;;;14.20
66403;BMP180;53212;52.112;5.144;2023-04-30T06:30:47;102400.60;;;14.30
66403;BMP180;53212;52.112;5.144;2023-04-30T06:33:12;102399.60;;;14.60
66403;BMP180;53212;52.112;5.144;2023-04-30T06:35:38;102398.00;;;14.84
66403;BMP180;53212;52.112;5.144;2023-04-30T06:38:04;102398.60;;;15.02
66403;BMP180;53212;52.112;5.144;2023-04-30T06:40:30;102400.40;;;15.40
66403;BMP180;53212;52.112;5.144;2023-04-30T06:42:55;102400.20;;;15.50
66403;BMP180;53212;52.112;5.144;2023-04-30T06:45:21;102408.40;;;15.70
66403;BMP180;53212;52.112;5.144;2023-04-30T06:47:46;102409.60;;;15.92
66403;BMP180;53212;52.112;5.144;2023-04-30T06:50:12;102413.40;;;15.90
66403;BMP180;53212;52.112;5.144;2023-04-30T06:52:39;102412.00;;;15.68
66403;BMP180;53212;52.112;5.144;2023-04-30T06:55:05;102411.00;;;15.10
66403;BMP180;53212;52.112;5.144;2023-04-30T06:57:31;102410.60;;;14.52
66403;BMP180;53212;52.112;5.144;2023-04-30T06:59:57;102413.00;;;14.10
66403;BMP180;53212;52.112;5.144;2023-04-30T07:02:22;102416.00;;;13.70
66403;BMP180;53212;52.112;5.144;2023-04-30T07:04:48;102419.20;;;13.50
66403;BMP180;53212;52.112;5.144;2023-04-30T07:07:13;102419.60;;;13.10
66403;BMP180;53212;52.112;5.144;2023-04-30T07:09:39;102422.20;;;12.84
66403;BMP180;53212;52.112;5.144;2023-04-30T07:12:04;102424.40;;;12.60
66403;BMP180;53212;52.112;5.144;2023-04-30T07:14:30;102423.80;;;12.50
66403;BMP180;53212;52.112;5.144;2023-04-30T07:16:55;102423.80;;;12.40
66403;BMP180;53212;52.112;5.144;2023-04-30T07:19:21;102422.60;;;12.28
66403;BMP180;53212;52.112;5.144;2023-04-30T07:21:47;102422.80;;;12.20
66403;BMP180;53212;52.112;5.144;2023-04-30T07:24:13;102422.20;;;12.18
66403;BMP180;53212;52.112;5.144;2023-04-30T07:26:38;102422.80;;;12.12
66403;BMP180;53212;52.112;5.144;2023-04-30T07:29:04;102421.80;;;12.10
66403;BMP180;53212;52.112;5.144;2023-04-30T07:31:29;102422.60;;;12.10
66403;BMP180;53212;52.112;5.144;2023-04-30T07:33:55;102417.60;;;12.10
66403;BMP180;53212;52.112;5.144;2023-04-30T07:36:21;102425.40;;;12.16
66403;BMP180;53212;52.112;5.144;2023-04-30T07:38:47;102418.40;;;12.20
66403;BMP180;53212;52.112;5.144;2023-04-30T07:41:13;102418.60;;;12.30
66403;BMP180;53212;52.112;5.144;2023-04-30T07:43:38;102419.00;;;12.30
66403;BMP180;53212;52.112;5.144;2023-04-30T07:46:04;102420.40;;;12.40
66403;BMP180;53212;52.112;5.144;2023-04-30T07:48:29;102415.20;;;12.40
66403;BMP180;53212;52.112;5.144;2023-04-30T07:50:55;102415.80;;;12.40
66403;BMP180;53212;52.112;5.144;2023-04-30T07:53:22;102412.00;;;12.46
66403;BMP180;53212;52.112;5.144;2023-04-30T07:55:48;102419.00;;;12.50
66403;BMP180;53212;52.112;5.144;2023-04-30T07:58:13;102420.20;;;12.60
66403;BMP180;53212;52.112;5.144;2023-04-30T08:00:39;102412.20;;;12.70
66403;BMP180;53212;52.112;5.144;2023-04-30T08:03:05;102411.60;;;12.70
66403;BMP180;53212;52.112;5.144;2023-04-30T08:05:30;102413.20;;;12.80
66403;BMP180;53212;52.112;5.144;2023-04-30T08:07:56;102412.40;;;12.80
66403;BMP180;53212;52.112;5.144;2023-04-30T08:10:21;102405.60;;;12.90
66403;BMP180;53212;52.112;5.144;2023-04-30T08:12:47;102411.80;;;12.90
66403;BMP180;53212;52.112;5.144;2023-04-30T08:15:12;102414.20;;;12.90
66403;BMP180;53212;52.112;5.144;2023-04-30T08:17:38;102413.80;;;12.90
66403;BMP180;53212;52.112;5.144;2023-04-30T08:20:05;102413.60;;;13.00
66403;BMP180;53212;52.112;5.144;2023-04-30T08:22:31;102409.80;;;13.02
66403;BMP180;53212;52.112;5.144;2023-04-30T08:24:56;102411.80;;;13.10
66403;BMP180;53212;52.112;5.144;2023-04-30T08:27:22;102416.00;;;13.10
66403;BMP180;53212;52.112;5.144;2023-04-30T08:29:48;102411.20;;;13.18
66403;BMP180;53212;52.112;5.144;2023-04-30T08:32:13;102417.20;;;13.20
66403;BMP180;53212;52.112;5.144;2023-04-30T08:34:39;102414.00;;;13.30
66403;BMP180;53212;52.112;5.144;2023-04-30T08:37:06;102416.40;;;13.38
66403;BMP180;53212;52.112;5.144;2023-04-30T08:39:31;102412.00;;;13.40
66403;BMP180;53212;52.112;5.144;2023-04-30T08:42:03;102411.00;;;13.40
66403;BMP180;53212;52.112;5.144;2023-04-30T08:44:32;102411.40;;;13.40
66403;BMP180;53212;52.112;5.144;2023-04-30T08:47:00;102415.00;;;13.42
66403;BMP180;53212;52.112;5.144;2023-04-30T08:49:26;102412.20;;;13.52
66403;BMP180;53212;52.112;5.144;2023-04-30T08:51:52;102409.00;;;13.60
66403;BMP180;53212;52.112;5.144;2023-04-30T08:54:18;102413.80;;;13.50
66403;BMP180;53212;52.112;5.144;2023-04-30T08:56:44;102414.40;;;13.52
66403;BMP180;53212;52.112;5.144;2023-04-30T08:59:12;102414.60;;;13.60
66403;BMP180;53212;52.112;5.144;2023-04-30T09:01:37;102411.20;;;13.60
66403;BMP180;53212;52.112;5.144;2023-04-30T09:04:03;102412.40;;;13.60
66403;BMP180;53212;52.112;5.144;2023-04-30T09:06:29;102410.40;;;13.70
66403;BMP180;53212;52.112;5.144;2023-04-30T09:08:56;102403.60;;;13.80
66403;BMP180;53212;52.112;5.144;2023-04-30T09:11:29;102404.40;;;13.80
66403;BMP180;53212;52.112;5.144;2023-04-30T09:14:00;102405.00;;;13.80
66403;BMP180;53212;52.112;5.144;2023-04-30T09:16:29;102404.80;;;13.90
66403;BMP180;53212;52.112;5.144;2023-04-30T09:18:58;102405.20;;;14.00
66403;BMP180;53212;52.112;5.144;2023-04-30T09:21:35;102404.20;;;14.08
66403;BMP180;53212;52.112;5.144;2023-04-30T09:24:04;102407.00;;;14.10
66403;BMP180;53212;52.112;5.144;2023-04-30T09:26:36;102405.00;;;14.20
66403;BMP180;53212;52.112;5.144;2023-04-30T09:29:02;102401.00;;;14.20
66403;BMP180;53212;52.112;5.144;2023-04-30T09:31:36;102395.60;;;14.30
66403;BMP180;53212;52.112;5.144;2023-04-30T09:34:03;102396.20;;;14.28
66403;BMP180;53212;52.112;5.144;2023-04-30T09:36:30;102393.80;;;14.30
66403;BMP180;53212;52.112;5.144;2023-04-30T09:39:05;102392.40;;;14.32
66403;BMP180;53212;52.112;5.144;2023-04-30T09:41:30;102386.00;;;14.30
66403;BMP180;53212;52.112;5.144;2023-04-30T09:43:57;102383.00;;;14.40
66403;BMP180;53212;52.112;5.144;2023-04-30T09:46:31;102391.40;;;14.50
66403;BMP180;53212;52.112;5.144;2023-04-30T09:49:02;102386.80;;;14.50
66403;BMP180;53212;52.112;5.144;2023-04-30T09:51:28;102385.80;;;14.70
66403;BMP180;53212;52.112;5.144;2023-04-30T09:53:54;102383.80;;;14.70
66403;BMP180;53212;52.112;5.144;2023-04-30T09:56:23;102381.80;;;14.70
66403;BMP180;53212;52.112;5.144;2023-04-30T09:58:54;102373.60;;;14.80
66403;BMP180;53212;52.112;5.144;2023-04-30T10:01:21;102375.80;;;14.94
66403;BMP180;53212;52.112;5.144;2023-04-30T10:03:48;102380.80;;;15.10
66403;BMP180;53212;52.112;5.144;2023-04-30T10:06:14;102377.60;;;15.20
66403;BMP180;53212;52.112;5.144;2023-04-30T10:08:46;102380.00;;;15.40
66403;BMP180;53212;52.112;5.144;2023-04-30T10:11:17;102380.80;;;15.40
66403;BMP180;53212;52.112;5.144;2023-04-30T10:14:02;102370.80;;;15.50
66403;BMP180;53212;52.112;5.144;2023-04-30T10:17:02;102365.80;;;15.50
66403;BMP180;53212;52.112;5.144;2023-04-30T10:19:35;102364.00;;;15.50
66403;BMP180;53212;52.112;5.144;2023-04-30T10:22:03;102362.80;;;15.40
66403;BMP180;53212;52.112;5.144;2023-04-30T10:24:29;102362.40;;;15.42
66403;BMP180;53212;52.112;5.144;2023-04-30T10:26:55;102360.20;;;15.50
66403;BMP180;53212;52.112;5.144;2023-04-30T10:29:21;102360.20;;;15.50
66403;BMP180;53212;52.112;5.144;2023-04-30T10:31:48;102359.20;;;15.50
66403;BMP180;53212;52.112;5.144;2023-04-30T10:37:52;102351.40;;;15.60
66403;BMP180;53212;52.112;5.144;2023-04-30T10:40:19;102353.80;;;15.66
66403;BMP180;53212;52.112;5.144;2023-04-30T10:42:48;102352.20;;;15.70
66403;BMP180;53212;52.112;5.144;2023-04-30T10:45:16;102346.60;;;15.80
66403;BMP180;53212;52.112;5.144;2023-04-30T10:47:43;102342.40;;;15.90
66403;BMP180;53212;52.112;5.144;2023-04-30T10:50:10;102336.20;;;16.00
66403;BMP180;53212;52.112;5.144;2023-04-30T10:52:37;102343.60;;;16.10
66403;BMP180;53212;52.112;5.144;2023-04-30T10:55:09;102337.20;;;16.10
66403;BMP180;53212;52.112;5.144;2023-04-30T10:57:42;102334.00;;;16.20
66403;BMP180;53212;52.112;5.144;2023-04-30T11:02:43;102331.40;;;16.40
66403;BMP180;53212;52.112;5.144;2023-04-30T11:05:17;102328.20;;;16.40
66403;BMP180;53212;52.112;5.144;2023-04-30T11:07:56;102329.00;;;16.44
66403;BMP180;53212;52.112;5.144;2023-04-30T11:10:25;102327.20;;;16.60
66403;BMP180;53212;52.112;5.144;2023-04-30T11:12:53;102320.20;;;16.50
66403;BMP180;53212;52.112;5.144;2023-04-30T11:15:24;102317.40;;;16.50
66403;BMP180;53212;52.112;5.144;2023-04-30T11:17:50;102312.60;;;16.50
66403;BMP180;53212;52.112;5.144;2023-04-30T11:20:21;102307.20;;;16.50
66403;BMP180;53212;52.112;5.144;2023-04-30T11:22:47;102306.80;;;16.58
66403;BMP180;53212;52.112;5.144;2023-04-30T11:25:18;102304.80;;;16.70
66403;BMP180;53212;52.112;5.144;2023-04-30T11:27:44;102295.60;;;16.70
66403;BMP180;53212;52.112;5.144;2023-04-30T11:30:15;102297.20;;;16.90
66403;BMP180;53212;52.112;5.144;2023-04-30T11:32:43;102298.20;;;17.10
66403;BMP180;53212;52.112;5.144;2023-04-30T11:35:12;102291.80;;;17.20
66403;BMP180;53212;52.112;5.144;2023-04-30T11:37:43;102285.80;;;17.40
66403;BMP180;53212;52.112;5.144;2023-04-30T11:40:10;102291.40;;;17.50
66403;BMP180;53212;52.112;5.144;2023-04-30T11:42:38;102288.00;;;17.50
66403;BMP180;53212;52.112;5.144;2023-04-30T11:45:09;102286.00;;;17.40
66403;BMP180;53212;52.112;5.144;2023-04-30T11:50:18;102280.40;;;17.50
66403;BMP180;53212;52.112;5.144;2023-04-30T11:52:50;102276.40;;;17.48
66403;BMP180;53212;52.112;5.144;2023-04-30T11:55:19;102271.20;;;17.60
66403;BMP180;53212;52.112;5.144;2023-04-30T11:57:48;102267.40;;;17.80
66403;BMP180;53212;52.112;5.144;2023-04-30T12:00:17;102266.60;;;18.00
66403;BMP180;53212;52.112;5.144;2023-04-30T12:02:46;102266.60;;;18.10
66403;BMP180;53212;52.112;5.144;2023-04-30T12:05:21;102262.00;;;18.30
66403;BMP180;53212;52.112;5.144;2023-04-30T12:07:49;102254.80;;;18.42
66403;BMP180;53212;52.112;5.144;2023-04-30T12:10:15;102253.40;;;18.50
66403;BMP180;53212;52.112;5.144;2023-04-30T12:12:44;102249.20;;;18.60
66403;BMP180;53212;52.112;5.144;2023-04-30T12:15:15;102249.80;;;18.74
66403;BMP180;53212;52.112;5.144;2023-04-30T12:17:43;102250.20;;;18.80
66403;BMP180;53212;52.112;5.144;2023-04-30T12:20:10;102251.40;;;18.70
66403;BMP180;53212;52.112;5.144;2023-04-30T12:22:36;102243.60;;;18.70
66403;BMP180;53212;52.112;5.144;2023-04-30T12:25:07;102243.60;;;18.68
66403;BMP180;53212;52.112;5.144;2023-04-30T12:27:35;102233.60;;;18.88
66403;BMP180;53212;52.112;5.144;2023-04-30T12:30:10;102235.00;;;19.10
66403;BMP180;53212;52.112;5.144;2023-04-30T12:32:41;102234.20;;;19.10
66403;BMP180;53212;52.112;5.144;2023-04-30T12:35:08;102228.40;;;19.20
66403;BMP180;53212;52.112;5.144;2023-04-30T12:37:41;102231.20;;;19.40
66403;BMP180;53212;52.112;5.144;2023-04-30T12:40:08;102230.00;;;19.60
66403;BMP180;53212;52.112;5.144;2023-04-30T12:42:34;102233.80;;;19.60
66403;BMP180;53212;52.112;5.144;2023-04-30T12:45:00;102228.60;;;19.50
66403;BMP180;53212;52.112;5.144;2023-04-30T12:47:25;102229.80;;;19.30
66403;BMP180;53212;52.112;5.144;2023-04-30T12:49:51;102224.60;;;19.20
66403;BMP180;53212;52.112;5.144;2023-04-30T12:52:22;102224.60;;;19.10
66403;BMP180;53212;52.112;5.144;2023-04-30T12:54:48;102225.00;;;19.02
66403;BMP180;53212;52.112;5.144;2023-04-30T12:57:13;102220.60;;;19.00
66403;BMP180;53212;52.112;5.144;2023-04-30T12:59:56;102216.40;;;19.10
66403;BMP180;53212;52.112;5.144;2023-04-30T13:02:28;102214.00;;;19.20
66403;BMP180;53212;52.112;5.144;2023-04-30T13:04:54;102213.60;;;19.34
66403;BMP180;53212;52.112;5.144;2023-04-30T13:07:19;102211.40;;;19.40
66403;BMP180;53212;52.112;5.144;2023-04-30T13:09:46;102206.20;;;19.40
66403;BMP180;53212;52.112;5.144;2023-04-30T13:12:12;102202.80;;;19.50
66403;BMP180;53212;52.112;5.144;2023-04-30T13:14:37;102205.40;;;19.70
66403;BMP180;53212;52.112;5.144;2023-04-30T13:17:03;102200.60;;;19.96
66403;BMP180;53212;52.112;5.144;2023-04-30T13:19:31;102192.60;;;20.20
66403;BMP180;53212;52.112;5.144;2023-04-30T13:21:57;102193.60;;;20.40
66403;BMP180;53212;52.112;5.144;2023-04-30T13:24:23;102200.00;;;20.60
66403;BMP180;53212;52.112;5.144;2023-04-30T13:26:49;102188.80;;;20.84
66403;BMP180;53212;52.112;5.144;2023-04-30T13:29:14;102195.80;;;21.00
66403;BMP180;53212;52.112;5.144;2023-04-30T13:31:40;102190.40;;;21.00
66403;BMP180;53212;52.112;5.144;2023-04-30T13:34:08;102192.00;;;20.90
66403;BMP180;53212;52.112;5.144;2023-04-30T13:36:34;102186.20;;;20.80
66403;BMP180;53212;52.112;5.144;2023-04-30T13:39:00;102183.60;;;20.90
66403;BMP180;53212;52.112;5.144;2023-04-30T13:41:26;102181.20;;;21.10
66403;BMP180;53212;52.112;5.144;2023-04-30T13:43:51;102178.00;;;21.20
66403;BMP180;53212;52.112;5.144;2023-04-30T13:46:17;102169.80;;;21.14
66403;BMP180;53212;52.112;5.144;2023-04-30T13:48:42;102174.40;;;21.20
66403;BMP180;53212;52.112;5.144;2023-04-30T13:51:08;102175.20;;;21.10
66403;BMP180;53212;52.112;5.144;2023-04-30T13:53:33;102180.20;;;20.90
66403;BMP180;53212;52.112;5.144;2023-04-30T13:56:00;102174.80;;;20.80
66403;BMP180;53212;52.112;5.144;2023-04-30T13:58:27;102176.00;;;20.60
66403;BMP180;53212;52.112;5.144;2023-04-30T14:00:53;102171.40;;;20.40
66403;BMP180;53212;52.112;5.144;2023-04-30T14:03:19;102168.00;;;20.30
66403;BMP180;53212;52.112;5.144;2023-04-30T14:05:44;102165.00;;;20.40
66403;BMP180;53212;52.112;5.144;2023-04-30T14:08:10;102164.40;;;20.50
66403;BMP180;53212;52.112;5.144;2023-04-30T14:10:37;102159.40;;;20.72
66403;BMP180;53212;52.112;5.144;2023-04-30T14:13:02;102158.80;;;21.00
66403;BMP180;53212;52.112;5.144;2023-04-30T14:15:29;102153.80;;;21.40
66403;BMP180;53212;52.112;5.144;2023-04-30T14:17:56;102151.40;;;21.72
66403;BMP180;53212;52.112;5.144;2023-04-30T14:20:22;102148.60;;;21.92
66403;BMP180;53212;52.112;5.144;2023-04-30T14:22:47;102149.60;;;22.10
66403;BMP180;53212;52.112;5.144;2023-04-30T14:25:13;102149.20;;;22.10